sensor_id;sensor_type;location;lat;lon;timestamp;temperature;humidity
52203;DHT22;38173;52.850;6.970;2023-11-18T00:02:31;0.90;99.90
52203;DHT22;38173;52.850;6.970;2023-11-18T00:05:33;0.90;99.90
52203;DHT22;38173;52.850;6.970;2023-11-18T00:08:09;0.90;99.90
52203;DHT22;38173;52.850;6.970;2023-11-18T00:10:46;0.90;99.90
52203;DHT22;38173;52.850;6.970;2023-11-18T00:13:15;0.90;99.90
52203;DHT22;38173;52.850;6.970;2023-11-18T00:15:49;0.90;99.90
52203;DHT22;38173;52.850;6.970;2023-11-18T00:18:21;0.80;99.90
52203;DHT22;38173;52.850;6.970;2023-11-18T00:20:53;0.80;99.90
52203;DHT22;38173;52.850;6.970;2023-11-18T00:23:19;0.70;99.90
52203;DHT22;38173;52.850;6.970;2023-11-18T00:25:47;0.70;99.90
52203;DHT22;38173;52.850;6.970;2023-11-18T00:28:13;0.70;99.90
52203;DHT22;38173;52.850;6.970;2023-11-18T00:30:39;0.70;99.90
52203;DHT22;38173;52.850;6.970;2023-11-18T00:33:14;0.60;99.90
52203;DHT22;38173;52.850;6.970;2023-11-18T00:35:42;0.60;99.90
52203;DHT22;38173;52.850;6.970;2023-11-18T00:38:11;0.60;99.90
52203;DHT22;38173;52.850;6.970;2023-11-18T00:40:39;0.60;99.90
52203;DHT22;38173;52.850;6.970;2023-11-18T00:43:05;0.50;99.90
52203;DHT22;38173;52.850;6.970;2023-11-18T00:45:37;0.50;99.90
52203;DHT22;38173;52.850;6.970;2023-11-18T00:48:02;0.50;99.90
52203;DHT22;38173;52.850;6.970;2023-11-18T00:50:30;0.50;99.90
52203;DHT22;38173;52.850;6.970;2023-11-18T00:52:58;0.50;99.90
52203;DHT22;38173;52.850;6.970;2023-11-18T00:55:29;0.50;99.90
52203;DHT22;38173;52.850;6.970;2023-11-18T00:57:58;0.40;99.90
52203;DHT22;38173;52.850;6.970;2023-11-18T01:00:36;0.40;99.90
52203;DHT22;38173;52.850;6.970;2023-11-18T01:03:02;0.40;99.90
52203;DHT22;38173;52.850;6.970;2023-11-18T01:05:41;0.40;99.90
52203;DHT22;38173;52.850;6.970;2023-11-18T01:08:09;0.30;99.90
52203;DHT22;38173;52.850;6.970;2023-11-18T01:10:48;0.30;99.90
52203;DHT22;38173;52.850;6.970;2023-11-18T01:13:15;0.30;99.90
52203;DHT22;38173;52.850;6.970;2023-11-18T01:16:04;0.30;99.90
52203;DHT22;38173;52.850;6.970;2023-11-18T01:18:30;0.30;99.90
52203;DHT22;38173;52.850;6.970;2023-11-18T01:21:00;0.30;99.90
52203;DHT22;38173;52.850;6.970;2023-11-18T01:23:37;0.30;99.90
52203;DHT22;38173;52.850;6.970;2023-11-18T01:26:05;0.30;99.90
52203;DHT22;38173;52.850;6.970;2023-11-18T01:28:54;0.30;99.90
52203;DHT22;38173;52.850;6.970;2023-11-18T01:31:26;0.30;99.90
52203;DHT22;38173;52.850;6.970;2023-11-18T01:33:56;0.30;99.90
52203;DHT22;38173;52.850;6.970;2023-11-18T01:36:47;0.30;99.90
52203;DHT22;38173;52.850;6.970;2023-11-18T01:39:22;0.30;99.90
52203;DHT22;38173;52.850;6.970;2023-11-18T01:41:56;0.30;99.90
52203;DHT22;38173;52.850;6.970;2023-11-18T01:44:27;0.30;99.90
52203;DHT22;38173;52.850;6.970;2023-11-18T01:46:56;0.30;99.90
52203;DHT22;38173;52.850;6.970;2023-11-18T01:49:26;0.30;99.90
52203;DHT22;38173;52.850;6.970;2023-11-18T01:51:53;0.40;99.90
52203;DHT22;38173;52.850;6.970;2023-11-18T01:54:25;0.40;99.90
52203;DHT22;38173;52.850;6.970;2023-11-18T01:56:58;0.40;99.90
52203;DHT22;38173;52.850;6.970;2023-11-18T01:59:54;0.40;99.90
52203;DHT22;38173;52.850;6.970;2023-11-18T02:02:27;0.50;99.90
52203;DHT22;38173;52.850;6.970;2023-11-18T02:05:03;0.50;99.90
52203;DHT22;38173;52.850;6.970;2023-11-18T02:07:33;0.50;99.90
52203;DHT22;38173;52.850;6.970;2023-11-18T02:10:05;0.50;99.90
52203;DHT22;38173;52.850;6.970;2023-11-18T02:12:55;0.50;99.90
52203;DHT22;38173;52.850;6.970;2023-11-18T02:15:36;0.50;99.90
52203;DHT22;38173;52.850;6.970;2023-11-18T02:18:13;0.50;99.90
52203;DHT22;38173;52.850;6.970;2023-11-18T02:20:45;0.50;99.90
52203;DHT22;38173;52.850;6.970;2023-11-18T02:23:19;0.50;99.90
52203;DHT22;38173;52.850;6.970;2023-11-18T02:25:48;0.60;99.90
52203;DHT22;38173;52.850;6.970;2023-11-18T02:28:14;0.60;99.90
52203;DHT22;38173;52.850;6.970;2023-11-18T02:30:43;0.60;99.90
52203;DHT22;38173;52.850;6.970;2023-11-18T02:33:19;0.60;99.90
52203;DHT22;38173;52.850;6.970;2023-11-18T02:36:00;0.70;99.90
52203;DHT22;38173;52.850;6.970;2023-11-18T02:38:39;0.70;99.90
52203;DHT22;38173;52.850;6.970;2023-11-18T02:41:11;0.80;99.90
52203;DHT22;38173;52.850;6.970;2023-11-18T02:43:41;0.80;99.90
52203;DHT22;38173;52.850;6.970;2023-11-18T02:46:10;0.80;99.90
52203;DHT22;38173;52.850;6.970;2023-11-18T02:48:41;0.90;99.90
52203;DHT22;38173;52.850;6.970;2023-11-18T02:51:15;0.90;99.90
52203;DHT22;38173;52.850;6.970;2023-11-18T02:53:51;0.80;99.90
52203;DHT22;38173;52.850;6.970;2023-11-18T02:56:38;0.90;99.90
52203;DHT22;38173;52.850;6.970;2023-11-18T02:59:03;0.90;99.90
52203;DHT22;38173;52.850;6.970;2023-11-18T03:01:36;1.00;99.90
52203;DHT22;38173;52.850;6.970;2023-11-18T03:04:08;1.00;99.90
52203;DHT22;38173;52.850;6.970;2023-11-18T03:06:39;1.00;99.90
52203;DHT22;38173;52.850;6.970;2023-11-18T03:09:20;1.10;99.90
52203;DHT22;38173;52.850;6.970;2023-11-18T03:11:58;1.10;99.90
52203;DHT22;38173;52.850;6.970;2023-11-18T03:14:31;1.20;99.90
52203;DHT22;38173;52.850;6.970;2023-11-18T03:16:56;1.20;99.90
52203;DHT22;38173;52.850;6.970;2023-11-18T03:19:31;1.20;99.90
52203;DHT22;38173;52.850;6.970;2023-11-18T03:22:13;1.30;99.90
52203;DHT22;38173;52.850;6.970;2023-11-18T03:24:42;1.40;99.90
52203;DHT22;38173;52.850;6.970;2023-11-18T03:27:08;1.40;99.90
52203;DHT22;38173;52.850;6.970;2023-11-18T03:29:37;1.40;99.90
52203;DHT22;38173;52.850;6.970;2023-11-18T03:32:03;1.50;99.90
52203;DHT22;38173;52.850;6.970;2023-11-18T03:34:35;1.50;99.90
52203;DHT22;38173;52.850;6.970;2023-11-18T03:37:04;1.50;99.90
52203;DHT22;38173;52.850;6.970;2023-11-18T03:39:57;1.60;99.90
52203;DHT22;38173;52.850;6.970;2023-11-18T03:42:26;1.50;99.90
52203;DHT22;38173;52.850;6.970;2023-11-18T03:44:57;1.50;99.90
52203;DHT22;38173;52.850;6.970;2023-11-18T03:47:31;1.60;99.90
52203;DHT22;38173;52.850;6.970;2023-11-18T03:50:13;1.50;99.90
52203;DHT22;38173;52.850;6.970;2023-11-18T03:52:41;1.60;99.90
52203;DHT22;38173;52.850;6.970;2023-11-18T03:55:07;1.50;99.90
52203;DHT22;38173;52.850;6.970;2023-11-18T03:57:34;1.50;99.90
52203;DHT22;38173;52.850;6.970;2023-11-18T04:00:02;1.60;99.90
52203;DHT22;38173;52.850;6.970;2023-11-18T04:02:34;1.60;99.90
52203;DHT22;38173;52.850;6.970;2023-11-18T04:05:09;1.60;99.90
52203;DHT22;38173;52.850;6.970;2023-11-18T04:07:42;1.60;99.90
52203;DHT22;38173;52.850;6.970;2023-11-18T04:10:17;1.60;99.90
52203;DHT22;38173;52.850;6.970;2023-11-18T04:12:44;1.60;99.90
52203;DHT22;38173;52.850;6.970;2023-11-18T04:15:12;1.60;99.90
52203;DHT22;38173;52.850;6.970;2023-11-18T04:17:44;1.60;99.90
52203;DHT22;38173;52.850;6.970;2023-11-18T04:20:13;1.60;99.90
52203;DHT22;38173;52.850;6.970;2023-11-18T04:22:44;1.60;99.90
52203;DHT22;38173;52.850;6.970;2023-11-18T04:25:13;1.60;99.90
52203;DHT22;38173;52.850;6.970;2023-11-18T04:27:41;1.60;99.90
52203;DHT22;38173;52.850;6.970;2023-11-18T04:30:10;1.50;99.90
52203;DHT22;38173;52.850;6.970;2023-11-18T04:32:44;1.50;99.90
52203;DHT22;38173;52.850;6.970;2023-11-18T04:35:10;1.50;99.90
52203;DHT22;38173;52.850;6.970;2023-11-18T04:38:06;1.60;99.90
52203;DHT22;38173;52.850;6.970;2023-11-18T04:40:42;1.60;99.90
52203;DHT22;38173;52.850;6.970;2023-11-18T04:43:17;1.60;99.90
52203;DHT22;38173;52.850;6.970;2023-11-18T04:45:57;1.60;99.90
52203;DHT22;38173;52.850;6.970;2023-11-18T04:48:25;1.60;99.90
52203;DHT22;38173;52.850;6.970;2023-11-18T04:50:57;1.60;99.90
52203;DHT22;38173;52.850;6.970;2023-11-18T04:53:33;1.60;99.90
52203;DHT22;38173;52.850;6.970;2023-11-18T04:56:10;1.60;99.90
52203;DHT22;38173;52.850;6.970;2023-11-18T04:58:46;1.60;99.90
52203;DHT22;38173;52.850;6.970;2023-11-18T05:01:17;1.60;99.90
52203;DHT22;38173;52.850;6.970;2023-11-18T05:03:43;1.60;99.90
52203;DHT22;38173;52.850;6.970;2023-11-18T05:06:09;1.60;99.90
52203;DHT22;38173;52.850;6.970;2023-11-18T05:08:46;1.60;99.90
52203;DHT22;38173;52.850;6.970;2023-11-18T05:14:07;1.60;99.90
52203;DHT22;38173;52.850;6.970;2023-11-18T05:16:42;1.50;99.90
52203;DHT22;38173;52.850;6.970;2023-11-18T05:19:15;1.50;99.90
52203;DHT22;38173;52.850;6.970;2023-11-18T05:21:48;1.40;99.90
52203;DHT22;38173;52.850;6.970;2023-11-18T05:24:26;1.50;99.90
52203;DHT22;38173;52.850;6.970;2023-11-18T05:26:52;1.40;99.90
52203;DHT22;38173;52.850;6.970;2023-11-18T05:29:18;1.40;99.90
52203;DHT22;38173;52.850;6.970;2023-11-18T05:31:46;1.40;99.90
52203;DHT22;38173;52.850;6.970;2023-11-18T05:34:12;1.40;99.90
52203;DHT22;38173;52.850;6.970;2023-11-18T05:36:38;1.50;99.90
52203;DHT22;38173;52.850;6.970;2023-11-18T05:39:05;1.50;99.90
52203;DHT22;38173;52.850;6.970;2023-11-18T05:41:33;1.50;99.90
52203;DHT22;38173;52.850;6.970;2023-11-18T05:44:00;1.50;99.90
52203;DHT22;38173;52.850;6.970;2023-11-18T05:46:29;1.60;99.90
52203;DHT22;38173;52.850;6.970;2023-11-18T05:48:55;1.60;99.90
52203;DHT22;38173;52.850;6.970;2023-11-18T05:51:28;1.70;99.90
52203;DHT22;38173;52.850;6.970;2023-11-18T05:53:54;1.70;99.90
52203;DHT22;38173;52.850;6.970;2023-11-18T05:56:21;1.70;99.90
52203;DHT22;38173;52.850;6.970;2023-11-18T05:58:47;1.80;99.90
52203;DHT22;38173;52.850;6.970;2023-11-18T06:01:13;1.80;99.90
52203;DHT22;38173;52.850;6.970;2023-11-18T06:03:39;1.80;99.90
52203;DHT22;38173;52.850;6.970;2023-11-18T06:06:11;1.90;99.90
52203;DHT22;38173;52.850;6.970;2023-11-18T06:08:38;1.90;99.90
52203;DHT22;38173;52.850;6.970;2023-11-18T06:11:10;2.00;99.90
52203;DHT22;38173;52.850;6.970;2023-11-18T06:13:44;2.00;99.90
52203;DHT22;38173;52.850;6.970;2023-11-18T06:16:19;2.10;99.90
52203;DHT22;38173;52.850;6.970;2023-11-18T06:18:49;2.10;99.90
52203;DHT22;38173;52.850;6.970;2023-11-18T06:21:19;2.10;99.90
52203;DHT22;38173;52.850;6.970;2023-11-18T06:23:48;2.10;99.90
52203;DHT22;38173;52.850;6.970;2023-11-18T06:26:14;2.20;99.90
52203;DHT22;38173;52.850;6.970;2023-11-18T06:28:45;2.20;99.90
52203;DHT22;38173;52.850;6.970;2023-11-18T06:31:11;2.20;99.90
52203;DHT22;38173;52.850;6.970;2023-11-18T06:34:01;2.20;99.90
52203;DHT22;38173;52.850;6.970;2023-11-18T06:36:29;2.20;99.90
52203;DHT22;38173;52.850;6.970;2023-11-18T06:38:58;2.20;99.90
52203;DHT22;38173;52.850;6.970;2023-11-18T06:41:24;2.20;99.90
52203;DHT22;38173;52.850;6.970;2023-11-18T06:43:59;2.30;99.90
52203;DHT22;38173;52.850;6.970;2023-11-18T06:46:32;2.30;99.90
52203;DHT22;38173;52.850;6.970;2023-11-18T06:49:00;2.20;99.90
52203;DHT22;38173;52.850;6.970;2023-11-18T06:51:31;2.20;99.90
52203;DHT22;38173;52.850;6.970;2023-11-18T06:53:58;2.30;99.90
52203;DHT22;38173;52.850;6.970;2023-11-18T06:56:25;2.30;99.90
52203;DHT22;38173;52.850;6.970;2023-11-18T06:58:54;2.30;99.90
52203;DHT22;38173;52.850;6.970;2023-11-18T07:01:22;2.30;99.90
52203;DHT22;38173;52.850;6.970;2023-11-18T07:03:49;2.30;99.90
52203;DHT22;38173;52.850;6.970;2023-11-18T07:06:19;2.30;99.90
52203;DHT22;38173;52.850;6.970;2023-11-18T07:08:54;2.30;99.90
52203;DHT22;38173;52.850;6.970;2023-11-18T07:11:25;2.30;99.90
52203;DHT22;38173;52.850;6.970;2023-11-18T07:13:51;2.30;99.90
52203;DHT22;38173;52.850;6.970;2023-11-18T07:16:25;2.30;99.90
52203;DHT22;38173;52.850;6.970;2023-11-18T07:18:52;2.30;99.90
52203;DHT22;38173;52.850;6.970;2023-11-18T07:21:18;2.30;99.90
52203;DHT22;38173;52.850;6.970;2023-11-18T07:23:47;2.30;99.90
52203;DHT22;38173;52.850;6.970;2023-11-18T07:26:16;2.30;99.90
52203;DHT22;38173;52.850;6.970;2023-11-18T07:28:42;2.30;99.90
52203;DHT22;38173;52.850;6.970;2023-11-18T07:31:10;2.30;99.90
52203;DHT22;38173;52.850;6.970;2023-11-18T07:33:36;2.30;99.90
52203;DHT22;38173;52.850;6.970;2023-11-18T07:36:02;2.30;99.90
52203;DHT22;38173;52.850;6.970;2023-11-18T07:38:31;2.30;99.90
52203;DHT22;38173;52.850;6.970;2023-11-18T07:40:59;2.40;99.90
52203;DHT22;38173;52.850;6.970;2023-11-18T07:43:25;2.30;99.90
52203;DHT22;38173;52.850;6.970;2023-11-18T07:45:54;2.40;99.90
52203;DHT22;38173;52.850;6.970;2023-11-18T07:48:26;2.40;99.90
52203;DHT22;38173;52.850;6.970;2023-11-18T07:50:53;2.40;99.90
52203;DHT22;38173;52.850;6.970;2023-11-18T07:53:19;2.40;99.90
52203;DHT22;38173;52.850;6.970;2023-11-18T07:55:44;2.40;99.90
52203;DHT22;38173;52.850;6.970;2023-11-18T07:58:11;2.40;99.90
52203;DHT22;38173;52.850;6.970;2023-11-18T08:00:40;2.40;99.90
52203;DHT22;38173;52.850;6.970;2023-11-18T08:03:09;2.40;99.90
52203;DHT22;38173;52.850;6.970;2023-11-18T08:05:43;2.40;99.90
52203;DHT22;38173;52.850;6.970;2023-11-18T08:08:12;2.50;99.90
52203;DHT22;38173;52.850;6.970;2023-11-18T08:10:41;2.50;99.90
52203;DHT22;38173;52.850;6.970;2023-11-18T08:13:11;2.50;99.90
52203;DHT22;38173;52.850;6.970;2023-11-18T08:15:39;2.50;99.90
52203;DHT22;38173;52.850;6.970;2023-11-18T08:18:05;2.50;99.90
52203;DHT22;38173;52.850;6.970;2023-11-18T08:20:32;2.50;99.90
52203;DHT22;38173;52.850;6.970;2023-11-18T08:22:58;2.50;99.90
52203;DHT22;38173;52.850;6.970;2023-11-18T08:25:30;2.50;99.90
52203;DHT22;38173;52.850;6.970;2023-11-18T08:28:00;2.60;99.90
52203;DHT22;38173;52.850;6.970;2023-11-18T08:30:26;2.60;99.90
52203;DHT22;38173;52.850;6.970;2023-11-18T08:32:52;2.60;99.90
52203;DHT22;38173;52.850;6.970;2023-11-18T08:35:21;2.60;99.90
52203;DHT22;38173;52.850;6.970;2023-11-18T08:37:47;2.60;99.90
52203;DHT22;38173;52.850;6.970;2023-11-18T08:40:13;2.60;99.90
52203;DHT22;38173;52.850;6.970;2023-11-18T08:42:52;2.60;99.90
52203;DHT22;38173;52.850;6.970;2023-11-18T08:45:23;2.70;99.90
52203;DHT22;38173;52.850;6.970;2023-11-18T08:47:59;2.70;99.90
52203;DHT22;38173;52.850;6.970;2023-11-18T08:50:27;2.70;99.90
52203;DHT22;38173;52.850;6.970;2023-11-18T08:52:55;2.70;99.90
52203;DHT22;38173;52.850;6.970;2023-11-18T08:55:28;2.70;99.90
52203;DHT22;38173;52.850;6.970;2023-11-18T08:58:11;2.70;99.90
52203;DHT22;38173;52.850;6.970;2023-11-18T09:00:52;2.80;99.90
52203;DHT22;38173;52.850;6.970;2023-11-18T09:03:21;2.80;99.90
52203;DHT22;38173;52.850;6.970;2023-11-18T09:05:54;2.80;99.90
52203;DHT22;38173;52.850;6.970;2023-11-18T09:08:30;2.90;99.90
52203;DHT22;38173;52.850;6.970;2023-11-18T09:11:08;2.90;99.90
52203;DHT22;38173;52.850;6.970;2023-11-18T09:13:37;3.00;99.90
52203;DHT22;38173;52.850;6.970;2023-11-18T09:16:07;3.00;99.90
52203;DHT22;38173;52.850;6.970;2023-11-18T09:18:38;3.10;99.90
52203;DHT22;38173;52.850;6.970;2023-11-18T09:21:05;3.10;99.90
52203;DHT22;38173;52.850;6.970;2023-11-18T09:23:34;3.20;99.90
52203;DHT22;38173;52.850;6.970;2023-11-18T09:26:03;3.20;99.90
52203;DHT22;38173;52.850;6.970;2023-11-18T09:28:36;3.20;99.90
52203;DHT22;38173;52.850;6.970;2023-11-18T09:31:03;3.30;99.90
52203;DHT22;38173;52.850;6.970;2023-11-18T09:33:31;3.30;99.90
52203;DHT22;38173;52.850;6.970;2023-11-18T09:36:00;3.40;99.90
52203;DHT22;38173;52.850;6.970;2023-11-18T09:40:53;3.50;99.90
52203;DHT22;38173;52.850;6.970;2023-11-18T09:43:20;3.40;99.90
52203;DHT22;38173;52.850;6.970;2023-11-18T09:45:57;3.50;99.90
52203;DHT22;38173;52.850;6.970;2023-11-18T09:48:25;3.50;99.90
52203;DHT22;38173;52.850;6.970;2023-11-18T09:50:52;3.60;99.90
52203;DHT22;38173;52.850;6.970;2023-11-18T09:53:19;3.60;99.90
52203;DHT22;38173;52.850;6.970;2023-11-18T09:55:56;3.60;99.90
52203;DHT22;38173;52.850;6.970;2023-11-18T09:58:41;3.60;99.90
52203;DHT22;38173;52.850;6.970;2023-11-18T10:01:11;3.70;99.90
52203;DHT22;38173;52.850;6.970;2023-11-18T10:03:44;3.80;99.90
52203;DHT22;38173;52.850;6.970;2023-11-18T10:06:16;3.80;99.90
52203;DHT22;38173;52.850;6.970;2023-11-18T10:08:41;3.80;99.90
52203;DHT22;38173;52.850;6.970;2023-11-18T10:11:12;3.80;99.90
52203;DHT22;38173;52.850;6.970;2023-11-18T10:13:39;3.90;99.90
52203;DHT22;38173;52.850;6.970;2023-11-18T10:16:08;3.90;99.90
52203;DHT22;38173;52.850;6.970;2023-11-18T10:18:37;3.90;99.90
52203;DHT22;38173;52.850;6.970;2023-11-18T10:21:07;3.90;99.90
52203;DHT22;38173;52.850;6.970;2023-11-18T10:23:37;3.90;99.90
52203;DHT22;38173;52.850;6.970;2023-11-18T10:26:03;3.90;99.90
52203;DHT22;38173;52.850;6.970;2023-11-18T10:28:31;4.00;99.90
52203;DHT22;38173;52.850;6.970;2023-11-18T10:31:05;4.00;99.90
52203;DHT22;38173;52.850;6.970;2023-11-18T10:33:32;4.00;99.90
52203;DHT22;38173;52.850;6.970;2023-11-18T10:36:04;4.00;99.90
52203;DHT22;38173;52.850;6.970;2023-11-18T10:38:38;4.10;99.90
52203;DHT22;38173;52.850;6.970;2023-11-18T10:41:09;4.10;99.90
52203;DHT22;38173;52.850;6.970;2023-11-18T10:43:37;4.10;99.90
52203;DHT22;38173;52.850;6.970;2023-11-18T10:46:15;4.10;99.90
52203;DHT22;38173;52.850;6.970;2023-11-18T10:48:45;4.10;99.90
52203;DHT22;38173;52.850;6.970;2023-11-18T10:51:18;4.10;99.90
52203;DHT22;38173;52.850;6.970;2023-11-18T10:53:52;4.20;99.90
52203;DHT22;38173;52.850;6.970;2023-11-18T10:56:27;4.20;99.90
52203;DHT22;38173;52.850;6.970;2023-11-18T10:58:58;4.20;99.90
52203;DHT22;38173;52.850;6.970;2023-11-18T11:01:32;4.20;99.90
52203;DHT22;38173;52.850;6.970;2023-11-18T11:03:59;4.20;99.90
52203;DHT22;38173;52.850;6.970;2023-11-18T11:06:25;4.20;99.90
52203;DHT22;38173;52.850;6.970;2023-11-18T11:08:52;4.20;99.90
52203;DHT22;38173;52.850;6.970;2023-11-18T11:11:22;4.20;99.90
52203;DHT22;38173;52.850;6.970;2023-11-18T11:13:59;4.20;99.90
52203;DHT22;38173;52.850;6.970;2023-11-18T11:16:37;4.20;99.90
52203;DHT22;38173;52.850;6.970;2023-11-18T11:19:07;4.20;99.90
52203;DHT22;38173;52.850;6.970;2023-11-18T11:21:50;4.20;99.90
52203;DHT22;38173;52.850;6.970;2023-11-18T11:24:35;4.20;99.90
52203;DHT22;38173;52.850;6.970;2023-11-18T11:27:25;4.20;99.90
52203;DHT22;38173;52.850;6.970;2023-11-18T11:30:27;4.20;99.90
52203;DHT22;38173;52.850;6.970;2023-11-18T11:33:13;4.20;99.90
52203;DHT22;38173;52.850;6.970;2023-11-18T11:35:44;4.20;99.90
52203;DHT22;38173;52.850;6.970;2023-11-18T11:38:16;4.30;99.90
52203;DHT22;38173;52.850;6.970;2023-11-18T11:40:42;4.30;99.90
52203;DHT22;38173;52.850;6.970;2023-11-18T11:43:10;4.30;99.90
52203;DHT22;38173;52.850;6.970;2023-11-18T11:45:37;4.30;99.90
52203;DHT22;38173;52.850;6.970;2023-11-18T11:48:07;4.40;99.90
52203;DHT22;38173;52.850;6.970;2023-11-18T11:51:02;4.40;99.90
52203;DHT22;38173;52.850;6.970;2023-11-18T11:53:36;4.40;99.90
52203;DHT22;38173;52.850;6.970;2023-11-18T11:56:11;4.40;99.90
52203;DHT22;38173;52.850;6.970;2023-11-18T11:58:41;4.40;99.90
52203;DHT22;38173;52.850;6.970;2023-11-18T12:01:26;4.40;99.90
52203;DHT22;38173;52.850;6.970;2023-11-18T12:03:59;4.40;99.90
52203;DHT22;38173;52.850;6.970;2023-11-18T12:06:33;4.40;99.90
52203;DHT22;38173;52.850;6.970;2023-11-18T12:09:01;4.50;99.90
52203;DHT22;38173;52.850;6.970;2023-11-18T12:11:36;4.50;99.90
52203;DHT22;38173;52.850;6.970;2023-11-18T12:14:09;4.50;99.90
52203;DHT22;38173;52.850;6.970;2023-11-18T12:19:49;4.50;99.90
52203;DHT22;38173;52.850;6.970;2023-11-18T12:22:20;4.50;99.90
52203;DHT22;38173;52.850;6.970;2023-11-18T12:33:04;4.50;99.90
52203;DHT22;38173;52.850;6.970;2023-11-18T12:41:35;4.60;99.90
52203;DHT22;38173;52.850;6.970;2023-11-18T12:47:00;4.60;99.90
52203;DHT22;38173;52.850;6.970;2023-11-18T12:49:41;4.70;99.90
52203;DHT22;38173;52.850;6.970;2023-11-18T12:52:11;4.70;99.90
52203;DHT22;38173;52.850;6.970;2023-11-18T12:54:38;4.70;99.90
52203;DHT22;38173;52.850;6.970;2023-11-18T12:57:12;4.70;99.90
52203;DHT22;38173;52.850;6.970;2023-11-18T12:59:41;4.70;99.90
52203;DHT22;38173;52.850;6.970;2023-11-18T13:02:11;4.70;99.90
52203;DHT22;38173;52.850;6.970;2023-11-18T13:04:51;4.70;99.90
52203;DHT22;38173;52.850;6.970;2023-11-18T13:07:19;4.70;99.90
52203;DHT22;38173;52.850;6.970;2023-11-18T13:09:47;4.60;99.90
52203;DHT22;38173;52.850;6.970;2023-11-18T13:12:14;4.70;99.90
52203;DHT22;38173;52.850;6.970;2023-11-18T13:14:52;4.60;99.90
52203;DHT22;38173;52.850;6.970;2023-11-18T13:17:18;4.70;99.90
52203;DHT22;38173;52.850;6.970;2023-11-18T13:19:47;4.60;99.90
52203;DHT22;38173;52.850;6.970;2023-11-18T13:22:20;4.70;99.90
52203;DHT22;38173;52.850;6.970;2023-11-18T13:24:49;4.70;99.90
52203;DHT22;38173;52.850;6.970;2023-11-18T13:27:16;4.70;99.90
52203;DHT22;38173;52.850;6.970;2023-11-18T13:29:46;4.70;99.90
52203;DHT22;38173;52.850;6.970;2023-11-18T13:32:15;4.70;99.90
52203;DHT22;38173;52.850;6.970;2023-11-18T13:34:41;4.70;99.90
52203;DHT22;38173;52.850;6.970;2023-11-18T13:37:08;4.70;99.90
52203;DHT22;38173;52.850;6.970;2023-11-18T13:39:36;4.70;99.90
52203;DHT22;38173;52.850;6.970;2023-11-18T13:42:23;4.70;99.90
52203;DHT22;38173;52.850;6.970;2023-11-18T13:44:51;4.70;99.90
52203;DHT22;38173;52.850;6.970;2023-11-18T13:47:21;4.80;99.90
52203;DHT22;38173;52.850;6.970;2023-11-18T13:49:50;4.80;99.90
52203;DHT22;38173;52.850;6.970;2023-11-18T13:52:19;4.80;99.90
52203;DHT22;38173;52.850;6.970;2023-11-18T13:54:51;4.80;99.90
52203;DHT22;38173;52.850;6.970;2023-11-18T13:57:38;4.80;99.90
52203;DHT22;38173;52.850;6.970;2023-11-18T14:00:05;4.80;99.90
52203;DHT22;38173;52.850;6.970;2023-11-18T14:02:31;4.80;99.90
52203;DHT22;38173;52.850;6.970;2023-11-18T14:04:59;4.80;99.90
52203;DHT22;38173;52.850;6.970;2023-11-18T14:07:30;4.80;99.90
52203;DHT22;38173;52.850;6.970;2023-11-18T14:09:57;4.90;99.90
52203;DHT22;38173;52.850;6.970;2023-11-18T14:12:23;4.90;99.90
52203;DHT22;38173;52.850;6.970;2023-11-18T14:14:53;4.90;99.90
52203;DHT22;38173;52.850;6.970;2023-11-18T14:17:18;4.90;99.90
52203;DHT22;38173;52.850;6.970;2023-11-18T14:19:47;4.90;99.90
52203;DHT22;38173;52.850;6.970;2023-11-18T14:22:12;4.90;99.90
52203;DHT22;38173;52.850;6.970;2023-11-18T14:24:41;5.00;99.90
52203;DHT22;38173;52.850;6.970;2023-11-18T14:27:13;5.00;99.90
52203;DHT22;38173;52.850;6.970;2023-11-18T14:29:39;5.00;99.90
52203;DHT22;38173;52.850;6.970;2023-11-18T14:32:05;5.00;99.90
52203;DHT22;38173;52.850;6.970;2023-11-18T14:34:33;5.10;99.90
52203;DHT22;38173;52.850;6.970;2023-11-18T14:36:59;5.10;99.90
52203;DHT22;38173;52.850;6.970;2023-11-18T14:39:28;5.10;99.90
52203;DHT22;38173;52.850;6.970;2023-11-18T14:42:03;5.10;99.90
52203;DHT22;38173;52.850;6.970;2023-11-18T14:44:29;5.10;99.90
52203;DHT22;38173;52.850;6.970;2023-11-18T14:47:01;5.20;99.90
52203;DHT22;38173;52.850;6.970;2023-11-18T14:49:27;5.20;99.90
52203;DHT22;38173;52.850;6.970;2023-11-18T14:51:54;5.20;99.90
52203;DHT22;38173;52.850;6.970;2023-11-18T14:54:20;5.20;99.90
52203;DHT22;38173;52.850;6.970;2023-11-18T14:56:49;5.20;99.90
52203;DHT22;38173;52.850;6.970;2023-11-18T14:59:15;5.20;99.90
52203;DHT22;38173;52.850;6.970;2023-11-18T15:01:41;5.20;99.90
52203;DHT22;38173;52.850;6.970;2023-11-18T15:04:12;5.20;99.90
52203;DHT22;38173;52.850;6.970;2023-11-18T15:06:41;5.20;99.90
52203;DHT22;38173;52.850;6.970;2023-11-18T15:09:09;5.30;99.90
52203;DHT22;38173;52.850;6.970;2023-11-18T15:11:36;5.30;99.90
52203;DHT22;38173;52.850;6.970;2023-11-18T15:14:03;5.30;99.90
52203;DHT22;38173;52.850;6.970;2023-11-18T15:16:29;5.30;99.90
52203;DHT22;38173;52.850;6.970;2023-11-18T15:18:54;5.30;99.90
52203;DHT22;38173;52.850;6.970;2023-11-18T15:21:24;5.30;99.90
52203;DHT22;38173;52.850;6.970;2023-11-18T15:23:50;5.30;99.90
52203;DHT22;38173;52.850;6.970;2023-11-18T15:26:23;5.30;99.90
52203;DHT22;38173;52.850;6.970;2023-11-18T15:28:57;5.30;99.90
52203;DHT22;38173;52.850;6.970;2023-11-18T15:31:33;5.30;99.90
52203;DHT22;38173;52.850;6.970;2023-11-18T15:33:59;5.30;99.90
52203;DHT22;38173;52.850;6.970;2023-11-18T15:36:26;5.40;99.90
52203;DHT22;38173;52.850;6.970;2023-11-18T15:38:52;5.40;99.90
52203;DHT22;38173;52.850;6.970;2023-11-18T15:41:18;5.40;99.90
52203;DHT22;38173;52.850;6.970;2023-11-18T15:43:52;5.50;99.90
52203;DHT22;38173;52.850;6.970;2023-11-18T15:46:23;5.50;99.90
52203;DHT22;38173;52.850;6.970;2023-11-18T15:48:52;5.50;99.90
52203;DHT22;38173;52.850;6.970;2023-11-18T15:51:18;5.50;99.90
52203;DHT22;38173;52.850;6.970;2023-11-18T15:53:45;5.50;99.90
52203;DHT22;38173;52.850;6.970;2023-11-18T15:56:11;5.50;99.90
52203;DHT22;38173;52.850;6.970;2023-11-18T15:58:39;5.50;99.90
52203;DHT22;38173;52.850;6.970;2023-11-18T16:01:07;5.50;99.90
52203;DHT22;38173;52.850;6.970;2023-11-18T16:03:35;5.60;99.90
52203;DHT22;38173;52.850;6.970;2023-11-18T16:06:03;5.60;99.90
52203;DHT22;38173;52.850;6.970;2023-11-18T16:08:29;5.60;99.90
52203;DHT22;38173;52.850;6.970;2023-11-18T16:10:55;5.60;99.90
52203;DHT22;38173;52.850;6.970;2023-11-18T16:13:21;5.60;99.90
52203;DHT22;38173;52.850;6.970;2023-11-18T16:15:47;5.60;99.90
52203;DHT22;38173;52.850;6.970;2023-11-18T16:18:13;5.60;99.90
52203;DHT22;38173;52.850;6.970;2023-11-18T16:20:39;5.60;99.90
52203;DHT22;38173;52.850;6.970;2023-11-18T16:23:07;5.70;99.90
52203;DHT22;38173;52.850;6.970;2023-11-18T16:25:33;5.70;99.90
52203;DHT22;38173;52.850;6.970;2023-11-18T16:28:05;5.70;99.90
52203;DHT22;38173;52.850;6.970;2023-11-18T16:30:32;5.70;99.90
52203;DHT22;38173;52.850;6.970;2023-11-18T16:32:59;5.70;99.90
52203;DHT22;38173;52.850;6.970;2023-11-18T16:35:33;5.70;99.90